Time;durP1;ratioP1;P1;durP2;ratioP2;P2;SDS_P1;SDS_P2;PMS_P1;PMS_P2;Temp;Humidity;BMP_temperature;BMP_pressure;BME280_temperature;BME280_humidity;BME280_pressure;Samples;Min_cycle;Max_cycle;Signal;HPM_P1;HPM_P2
2022/02/21 00:00:21;;;;;;;0.30;0.20;;;;;;;9.74;65.30;98143.44;10460009;28;20620;-72
2022/02/21 00:05:23;;;;;;;1.65;0.52;;;;;;;9.73;65.21;98105.84;10462180;28;20041;-71
2022/02/21 00:10:25;;;;;;;0.30;0.20;;;;;;;9.67;65.90;98071.28;10460391;28;20049;-71
2022/02/21 00:15:27;;;;;;;1.27;0.50;;;;;;;9.92;64.38;98095.13;10442392;28;20465;-71
2022/02/21 00:20:29;;;;;;;1.33;0.50;;;;;;;9.85;65.04;98071.03;10443422;28;20049;-71
2022/02/21 00:25:31;;;;;;;1.88;0.40;;;;;;;9.89;64.78;98049.84;10443714;28;20048;-71
2022/02/21 00:30:33;;;;;;;3.53;0.85;;;;;;;9.82;65.25;98010.84;10459596;28;20044;-71
2022/02/21 00:35:35;;;;;;;2.13;0.45;;;;;;;9.88;65.13;97999.16;10476345;22;20128;-70
2022/02/21 00:40:36;;;;;;;1.88;0.40;;;;;;;10.05;63.91;97985.00;10460772;28;20051;-70
2022/02/21 00:45:38;;;;;;;2.15;0.55;;;;;;;10.09;63.30;97966.34;10461312;28;20514;-69
2022/02/21 00:50:39;;;;;;;1.48;0.63;;;;;;;10.11;62.94;97934.72;10461370;28;20060;-70
2022/02/21 00:55:41;;;;;;;1.90;0.70;;;;;;;10.17;62.56;97913.31;10461348;28;20487;-69
2022/02/21 01:00:43;;;;;;;1.35;0.52;;;;;;;10.26;61.99;97898.78;10443252;28;20060;-69
2022/02/21 01:05:45;;;;;;;0.88;0.43;;;;;;;10.22;62.13;97897.28;10442580;28;20140;-69
2022/02/21 01:10:46;;;;;;;1.65;0.57;;;;;;;10.27;61.51;97871.59;10461051;28;20099;-70
2022/02/21 01:15:48;;;;;;;2.38;0.50;;;;;;;10.32;60.67;97859.03;10461195;28;20072;-68
2022/02/21 01:20:49;;;;;;;0.75;0.40;;;;;;;10.23;60.96;97822.84;10461024;28;20099;-71
2022/02/21 01:25:51;;;;;;;1.92;0.60;;;;;;;10.40;59.95;97811.22;10442318;28;20041;-69
2022/02/21 01:30:53;;;;;;;1.77;0.40;;;;;;;10.34;60.18;97792.31;10459750;28;20095;-70
2022/02/21 01:35:56;;;;;;;2.63;0.65;;;;;;;10.40;59.47;97798.09;10441432;28;20048;-69
2022/02/21 01:40:57;;;;;;;3.45;0.55;;;;;;;10.45;58.93;97791.63;10459426;28;20572;-69
2022/02/21 01:45:59;;;;;;;2.40;0.40;;;;;;;10.43;58.99;97769.84;10442407;28;20049;-69
2022/02/21 01:51:01;;;;;;;1.67;0.40;;;;;;;10.37;58.91;97783.41;10442367;28;20103;-70
2022/02/21 01:56:03;;;;;;;1.17;0.20;;;;;;;10.54;57.78;97764.72;10463701;28;20493;-70
2022/02/21 02:01:05;;;;;;;1.05;0.30;;;;;;;10.44;58.61;97763.66;10450564;28;20110;-69
2022/02/21 02:06:09;;;;;;;0.70;0.20;;;;;;;10.50;57.86;97728.25;10431850;28;20045;-70
2022/02/21 02:11:13;;;;;;;0.80;0.30;;;;;;;10.60;57.57;97743.28;10432722;28;20136;-70
2022/02/21 02:16:15;;;;;;;0.60;0.20;;;;;;;10.52;57.83;97718.47;10467907;28;20437;-70
2022/02/21 02:21:21;;;;;;;2.08;0.28;;;;;;;10.54;57.06;97696.44;10450292;28;20045;-69
2022/02/21 02:26:23;;;;;;;0.80;0.20;;;;;;;10.60;57.05;97688.13;10449003;28;20041;-69
2022/02/21 02:31:26;;;;;;;1.58;0.30;;;;;;;10.53;56.76;97654.50;10464870;28;20045;-68
2022/02/21 02:36:28;;;;;;;1.02;0.20;;;;;;;10.59;56.92;97654.91;10448360;28;20043;-69
2022/02/21 02:41:30;;;;;;;0.15;0.15;;;;;;;10.58;56.94;97665.50;10446826;28;20048;-69
2022/02/21 02:46:31;;;;;;;2.10;0.20;;;;;;;10.60;56.84;97645.25;10464671;28;20041;-69
2022/02/21 02:51:35;;;;;;;0.35;0.10;;;;;;;10.57;57.27;97666.47;10464851;28;20045;-70
2022/02/21 02:56:41;;;;;;;0.80;0.30;;;;;;;10.55;57.54;97634.22;10445502;28;20052;-70
2022/02/21 03:01:43;;;;;;;0.70;0.30;;;;;;;10.50;57.71;97641.59;10445272;28;20045;-70
2022/02/21 03:06:45;;;;;;;0.90;0.10;;;;;;;10.55;57.65;97627.19;10462209;28;20637;-69
2022/02/21 03:11:46;;;;;;;0.50;0.20;;;;;;;10.54;57.81;97617.63;10462941;28;20106;-69
2022/02/21 03:16:48;;;;;;;1.42;0.17;;;;;;;10.43;58.45;97611.44;10444371;28;20048;-69
2022/02/21 03:21:56;;;;;;;0.30;0.20;;;;;;;10.36;58.93;97582.16;10462207;28;20055;-70
2022/02/21 03:26:58;;;;;;;1.63;0.20;;;;;;;10.41;58.55;97635.19;10446040;28;20040;-69
2022/02/21 03:31:59;;;;;;;0.52;0.28;;;;;;;10.46;58.26;97630.44;10445292;28;20037;-70
2022/02/21 03:37:07;;;;;;;0.20;0.20;;;;;;;10.40;58.89;97630.84;10429107;28;20053;-69
2022/02/21 03:42:09;;;;;;;0.65;0.20;;;;;;;10.33;59.21;97658.50;10462533;28;20040;-69
2022/02/21 03:47:10;;;;;;;0.70;0.10;;;;;;;10.46;58.90;97645.38;10444177;28;20056;-70
2022/02/21 03:52:12;;;;;;;0.85;0.20;;;;;;;9.77;62.96;97845.00;10463273;28;20075;-69
2022/02/21 03:57:14;;;;;;;1.27;0.40;;;;;;;7.31;70.60;97906.41;10461626;28;20048;-71
2022/02/21 04:02:16;;;;;;;0.60;0.10;;;;;;;6.35;72.30;97904.28;10462985;28;20475;-70
2022/02/21 04:07:17;;;;;;;0.65;0.30;;;;;;;6.07;71.94;97887.34;10462029;28;20049;-70
2022/02/21 04:12:19;;;;;;;2.75;0.32;;;;;;;6.00;70.89;97872.06;10461746;28;20502;-69
2022/02/21 04:17:20;;;;;;;1.70;0.20;;;;;;;6.01;69.15;97851.13;10460790;28;20045;-69
2022/02/21 04:22:22;;;;;;;1.38;0.20;;;;;;;6.18;68.32;97849.47;10443994;28;20498;-70
2022/02/21 04:27:24;;;;;;;1.45;0.20;;;;;;;6.25;66.35;97840.44;10460569;28;20063;-69
2022/02/21 04:32:25;;;;;;;0.85;0.30;;;;;;;6.34;65.51;97824.31;10442623;28;20044;-70
2022/02/21 04:37:28;;;;;;;0.28;0.10;;;;;;;6.40;64.77;97836.22;10460083;28;20049;-70
2022/02/21 04:42:30;;;;;;;0.20;0.10;;;;;;;6.21;65.33;97865.81;10441440;28;20044;-69
2022/02/21 04:47:32;;;;;;;0.30;0.10;;;;;;;6.23;64.70;97897.03;10459169;28;20045;-69
2022/02/21 04:52:35;;;;;;;4.47;0.30;;;;;;;6.16;64.58;97899.13;10458748;28;20045;-69
2022/02/21 04:57:36;;;;;;;0.77;0.20;;;;;;;6.23;64.79;97894.44;10440522;28;20106;-69
2022/02/21 05:02:38;;;;;;;0.47;0.17;;;;;;;6.18;64.95;97886.00;10440988;28;20529;-69
2022/02/21 05:07:43;;;;;;;1.55;0.15;;;;;;;6.10;65.38;97870.69;10441045;28;20061;-69
2022/02/21 05:12:45;;;;;;;0.73;0.43;;;;;;;6.11;65.40;97911.53;10458468;28;20045;-69
2022/02/21 05:17:47;;;;;;;0.98;0.30;;;;;;;6.02;66.01;97912.81;10459415;28;20051;-70
2022/02/21 05:22:48;;;;;;;0.38;0.20;;;;;;;6.10;64.62;97924.63;10457954;28;20048;-70
2022/02/21 05:27:50;;;;;;;0.80;0.20;;;;;;;6.14;63.75;97950.50;10441205;28;20060;-69
2022/02/21 05:32:52;;;;;;;0.63;0.20;;;;;;;6.11;65.16;97955.88;10466254;28;20410;-69
2022/02/21 05:37:53;;;;;;;0.35;0.15;;;;;;;5.99;66.20;97969.47;10466537;28;20098;-69
2022/02/21 05:42:55;;;;;;;2.08;0.30;;;;;;;5.80;68.33;97964.25;10449154;28;20053;-69
2022/02/21 05:47:57;;;;;;;0.30;0.20;;;;;;;5.73;68.17;97949.78;10466112;28;20053;-70
2022/02/21 05:52:58;;;;;;;2.53;0.30;;;;;;;5.68;68.56;97936.13;10467145;28;20033;-69
2022/02/21 05:58:00;;;;;;;1.30;0.35;;;;;;;5.57;69.69;97934.81;10447963;28;20045;-69
2022/02/21 06:03:02;;;;;;;1.02;0.20;;;;;;;5.64;69.15;97966.69;10447382;28;20045;-69
2022/02/21 06:08:03;;;;;;;0.98;0.30;;;;;;;5.61;69.86;97960.75;10464954;28;20521;-69
2022/02/21 06:13:05;;;;;;;1.20;0.25;;;;;;;5.61;69.66;97984.22;10465647;28;20056;-70
2022/02/21 06:18:07;;;;;;;1.23;0.30;;;;;;;5.65;68.81;98014.44;10431065;28;20102;-69
2022/02/21 06:23:09;;;;;;;0.77;0.38;;;;;;;5.70;68.22;98028.94;10464489;28;20497;-70
2022/02/21 06:28:11;;;;;;;0.88;0.30;;;;;;;5.68;67.93;98030.78;10447097;28;20053;-70
2022/02/21 06:33:12;;;;;;;1.20;0.35;;;;;;;5.69;68.40;98014.22;10465242;28;20554;-70
2022/02/21 06:38:14;;;;;;;2.05;0.60;;;;;;;5.68;68.62;98016.91;10465606;28;20041;-70
2022/02/21 06:43:16;;;;;;;2.13;0.50;;;;;;;5.67;67.48;98008.25;10463108;28;20495;-70
2022/02/21 06:48:18;;;;;;;1.65;0.30;;;;;;;5.68;65.76;98014.31;10464774;28;20048;-70
2022/02/21 06:53:20;;;;;;;1.48;0.40;;;;;;;5.56;65.57;98015.69;10463796;28;20037;-70
2022/02/21 06:58:21;;;;;;;1.67;0.38;;;;;;;5.52;65.40;98014.97;10446087;28;20064;-70
2022/02/21 07:03:23;;;;;;;1.05;0.30;;;;;;;5.64;64.25;98013.59;10463460;28;20041;-70
2022/02/21 07:08:24;;;;;;;2.13;0.50;;;;;;;5.82;62.75;98049.28;10444979;28;20068;-70
2022/02/21 07:13:26;;;;;;;1.42;0.30;;;;;;;5.75;63.06;98060.03;10464196;28;20554;-69
2022/02/21 07:18:28;;;;;;;1.17;0.60;;;;;;;5.91;62.65;98094.13;10463510;28;20049;-70
2022/02/21 07:23:35;;;;;;;0.52;0.40;;;;;;;6.06;63.10;98124.75;10446613;28;20036;-69
2022/02/21 07:28:36;;;;;;;1.38;0.50;;;;;;;4.53;72.19;98175.25;10466200;28;20056;-71
2022/02/21 07:33:38;;;;;;;1.83;0.60;;;;;;;3.50;77.80;98232.53;10463238;28;20445;-71
2022/02/21 07:38:40;;;;;;;1.40;0.50;;;;;;;3.09;80.95;98231.22;10464844;28;20049;-72
2022/02/21 07:43:41;;;;;;;1.50;0.40;;;;;;;2.57;82.48;98259.56;10463666;28;20064;-72
2022/02/21 07:48:43;;;;;;;0.85;0.40;;;;;;;2.55;83.37;98230.19;10464701;28;20051;-73
2022/02/21 07:53:45;;;;;;;1.65;0.50;;;;;;;2.41;82.82;98217.63;10445503;28;20068;-74
2022/02/21 07:58:47;;;;;;;1.33;0.38;;;;;;;2.49;80.69;98212.22;10446342;28;20049;-73
2022/02/21 08:03:48;;;;;;;1.58;0.47;;;;;;;2.56;80.48;98259.56;10464327;28;20044;-74
2022/02/21 08:08:50;;;;;;;1.92;0.40;;;;;;;2.89;79.71;98269.00;10464365;28;20179;-72
2022/02/21 08:13:54;;;;;;;4.60;0.60;;;;;;;3.27;75.51;98278.22;10463773;28;20490;-73
2022/02/21 08:18:55;;;;;;;2.88;0.88;;;;;;;3.61;70.82;98242.56;10444154;28;20461;-71
2022/02/21 08:23:59;;;;;;;4.35;1.75;;;;;;;3.96;67.86;98252.66;10461871;28;20045;-72
2022/02/21 08:29:01;;;;;;;2.65;0.68;;;;;;;4.14;67.09;98266.78;10426641;28;20045;-72
2022/02/21 08:34:03;;;;;;;7.35;0.85;;;;;;;4.32;66.18;98278.31;10442629;28;20053;-73
2022/02/21 08:39:05;;;;;;;3.45;0.90;;;;;;;4.23;66.76;98304.63;10460362;28;20394;-72
2022/02/21 08:44:06;;;;;;;4.30;0.90;;;;;;;4.18;67.91;98304.78;10459995;28;20045;-72
2022/02/21 08:49:08;;;;;;;1.85;0.93;;;;;;;4.25;67.34;98316.69;10459619;28;20045;-71
2022/02/21 08:54:10;;;;;;;3.15;0.80;;;;;;;4.27;68.29;98306.22;10459281;28;20049;-71
2022/02/21 08:59:11;;;;;;;1.70;0.60;;;;;;;4.54;69.00;98335.66;10441360;28;20095;-70
2022/02/21 09:04:13;;;;;;;4.47;0.65;;;;;;;4.79;67.99;98335.66;10460403;28;20041;-71
2022/02/21 09:09:15;;;;;;;2.75;0.60;;;;;;;4.88;66.72;98334.47;10469054;28;20499;-71
2022/02/21 09:14:18;;;;;;;1.75;0.50;;;;;;;5.03;64.48;98319.13;10467971;28;20406;-71
2022/02/21 09:19:20;;;;;;;2.75;0.70;;;;;;;5.01;64.32;98315.75;10467445;28;20049;-72
2022/02/21 09:24:21;;;;;;;3.17;0.75;;;;;;;5.30;62.96;98316.41;10449355;28;20079;-70
2022/02/21 09:29:24;;;;;;;2.50;0.82;;;;;;;5.46;60.04;98317.53;10449890;28;20041;-70
2022/02/21 09:34:25;;;;;;;4.32;0.93;;;;;;;5.53;59.23;98315.50;10449963;28;20059;-71
2022/02/21 09:39:27;;;;;;;4.50;0.70;;;;;;;5.86;57.43;98315.97;10466736;28;20049;-71
2022/02/21 09:44:29;;;;;;;3.83;0.95;;;;;;;5.62;55.47;98298.66;10466425;28;20037;-71
2022/02/21 09:49:31;;;;;;;3.17;0.88;;;;;;;5.51;55.09;98315.59;10448477;28;20049;-70
2022/02/21 09:54:32;;;;;;;6.15;0.98;;;;;;;5.64;55.41;98321.16;10447535;28;20052;-71
2022/02/21 09:59:34;;;;;;;3.38;0.73;;;;;;;5.72;54.33;98331.31;10465495;28;20045;-71
2022/02/21 10:04:35;;;;;;;3.30;0.80;;;;;;;5.61;53.12;98328.25;10447727;28;20495;-70
2022/02/21 10:09:40;;;;;;;9.80;1.10;;;;;;;5.64;53.88;98357.66;10465858;28;20049;-70
2022/02/21 10:14:42;;;;;;;4.20;1.10;;;;;;;5.80;53.71;98350.94;10446783;28;20499;-70
2022/02/21 10:19:44;;;;;;;3.80;1.00;;;;;;;5.88;53.38;98336.75;10464577;28;20499;-70
2022/02/21 10:24:50;;;;;;;3.17;0.90;;;;;;;5.61;54.24;98378.63;10464696;28;20398;-70
2022/02/21 10:29:57;;;;;;;1.77;0.75;;;;;;;5.69;54.12;98392.22;10464503;28;20094;-69
2022/02/21 10:35:21;;;;;;;1.55;0.60;;;;;;;5.62;52.58;98406.38;10447632;28;20037;-70
2022/02/21 10:40:35;;;;;;;1.40;0.40;;;;;;;6.14;51.57;98388.75;10447798;28;20177;-70
2022/02/21 10:45:39;;;;;;;2.67;0.77;;;;;;;6.68;51.86;98384.78;10446844;28;20140;-71
2022/02/21 10:50:58;;;;;;;3.95;0.82;;;;;;;6.52;49.95;98399.41;10464710;28;20047;-70
2022/02/21 10:56:00;;;;;;;2.45;0.60;;;;;;;6.43;48.73;98395.41;10465158;28;20436;-70
2022/02/21 11:01:07;;;;;;;2.90;1.10;;;;;;;6.27;49.24;98389.09;10465223;28;20049;-70
2022/02/21 11:06:11;;;;;;;2.25;0.75;;;;;;;6.43;48.83;98407.63;10446673;28;20418;-70
2022/02/21 11:11:14;;;;;;;2.38;0.60;;;;;;;6.42;49.44;98393.72;10465155;28;20067;-69
2022/02/21 11:16:16;;;;;;;1.70;0.50;;;;;;;6.75;50.39;98391.44;10447501;28;20041;-71
2022/02/21 11:21:18;;;;;;;1.83;0.82;;;;;;;7.12;49.27;98404.69;10464128;28;20111;-71
2022/02/21 11:26:26;;;;;;;1.58;0.63;;;;;;;6.92;48.37;98405.56;10445269;28;20040;-69
2022/02/21 11:31:30;;;;;;;2.28;0.60;;;;;;;6.40;49.29;98426.00;10444810;28;20045;-70
2022/02/21 11:36:34;;;;;;;1.88;0.50;;;;;;;6.76;50.67;98416.63;10463470;28;20041;-70
2022/02/21 11:41:36;;;;;;;1.10;0.40;;;;;;;7.00;49.89;98421.75;10466936;28;20068;-69
2022/02/21 11:46:37;;;;;;;1.85;0.60;;;;;;;7.18;48.07;98412.28;10465164;28;20495;-69
2022/02/21 11:51:41;;;;;;;3.85;0.80;;;;;;;7.56;44.91;98377.41;10440989;28;20048;-71
2022/02/21 11:56:49;;;;;;;3.75;0.85;;;;;;;7.86;45.50;98399.59;10458091;28;20041;-70
2022/02/21 12:02:08;;;;;;;2.65;0.95;;;;;;;7.75;45.61;98376.56;10457873;28;20571;-69
2022/02/21 12:07:22;;;;;;;3.88;0.70;;;;;;;7.98;44.45;98384.16;10444748;28;20057;-70
2022/02/21 12:12:27;;;;;;;2.25;0.95;;;;;;;7.63;44.99;98385.81;10444581;28;20120;-70
2022/02/21 12:17:29;;;;;;;3.70;0.77;;;;;;;7.71;44.67;98385.47;10463187;28;20041;-71
2022/02/21 12:22:33;;;;;;;2.92;0.70;;;;;;;7.56;43.46;98377.41;10463225;28;20052;-71
2022/02/21 12:28:10;;;;;;;3.90;0.90;;;;;;;7.48;44.38;98378.66;10446631;28;20041;-70
2022/02/21 12:33:13;;;;;;;3.10;1.02;;;;;;;7.64;44.66;98358.75;10458988;22;20091;-74
2022/02/21 12:38:16;;;;;;;3.33;0.98;;;;;;;7.84;44.42;98370.91;10464062;28;20045;-72
2022/02/21 12:43:18;;;;;;;2.08;0.80;;;;;;;7.88;44.95;98351.53;10464355;28;20122;-72
2022/02/21 12:48:19;;;;;;;3.55;0.80;;;;;;;7.86;44.21;98362.97;10449749;28;20044;-73
2022/02/21 12:53:21;;;;;;;2.38;0.82;;;;;;;7.76;44.83;98347.72;10432763;28;20122;-72
2022/02/21 12:58:35;;;;;;;3.75;0.93;;;;;;;7.86;44.41;98362.97;10466352;28;20116;-73
2022/02/21 13:03:36;;;;;;;3.15;1.00;;;;;;;7.84;45.29;98358.66;10450126;28;20051;-73
2022/02/21 13:08:39;;;;;;;3.22;1.02;;;;;;;7.74;44.91;98349.53;10464593;28;20131;-73
2022/02/21 13:13:44;;;;;;;1.63;0.63;;;;;;;7.43;44.94;98350.13;10450261;28;20498;-73
2022/02/21 13:18:48;;;;;;;3.17;0.70;;;;;;;7.46;45.11;98352.59;10447727;28;20132;-72
2022/02/21 13:23:50;;;;;;;3.58;1.08;;;;;;;7.66;44.27;98356.91;10445367;28;20090;-72
2022/02/21 13:28:52;;;;;;;3.55;0.90;;;;;;;7.74;43.99;98341.69;10445761;28;20053;-71
2022/02/21 13:34:13;;;;;;;2.85;0.75;;;;;;;7.50;43.08;98361.16;10451269;28;20048;-72
2022/02/21 13:39:21;;;;;;;3.38;0.82;;;;;;;7.41;43.46;98351.97;10445217;28;20049;-72
2022/02/21 13:44:24;;;;;;;4.82;0.90;;;;;;;7.38;44.11;98352.09;10461893;28;20044;-73
2022/02/21 13:49:36;;;;;;;2.53;1.45;;;;;;;7.26;44.33;98347.41;10462807;28;20040;-72
2022/02/21 13:54:41;;;;;;;4.43;1.00;;;;;;;7.28;44.26;98345.59;10454435;28;20391;-73
2022/02/21 13:59:52;;;;;;;5.45;1.00;;;;;;;7.26;45.52;98336.97;10453943;28;20045;-72
2022/02/21 14:05:09;;;;;;;2.53;0.77;;;;;;;7.13;46.40;98341.91;10451540;28;20087;-72
2022/02/21 14:10:14;;;;;;;4.13;1.02;;;;;;;7.07;45.40;98327.34;10453210;28;20072;-72
2022/02/21 14:20:53;;;;;;;5.43;1.17;;;;;;;7.04;45.62;98295.31;11587211;23;20062;-70
2022/02/21 14:25:55;;;;;;;4.22;1.33;;;;;;;7.14;45.06;98295.75;10258747;29;20409;-71
2022/02/21 14:30:57;;;;;;;3.72;1.00;;;;;;;7.06;44.63;98294.31;10242196;29;20055;-70
2022/02/21 14:35:58;;;;;;;4.63;0.80;;;;;;;6.99;44.85;98298.09;10255851;23;20047;-72
2022/02/21 14:41:00;;;;;;;5.05;0.93;;;;;;;6.97;44.62;98284.28;10244770;29;20079;-73
2022/02/21 14:46:02;;;;;;;2.92;0.93;;;;;;;6.99;43.93;98273.75;10260169;29;20051;-72
2022/02/21 14:51:04;;;;;;;3.75;0.95;;;;;;;7.06;44.09;98262.97;10260435;29;20489;-72
2022/02/21 14:56:06;;;;;;;2.92;1.40;;;;;;;7.12;43.88;98255.75;10242177;29;20568;-72
2022/02/21 15:01:07;;;;;;;3.50;1.00;;;;;;;7.15;43.03;98239.94;10259835;28;20051;-73
2022/02/21 15:06:09;;;;;;;3.10;0.82;;;;;;;7.24;42.96;98240.34;10260019;29;20156;-74
2022/02/21 15:11:11;;;;;;;2.88;1.00;;;;;;;7.20;42.88;98211.81;10260071;29;20047;-73
2022/02/21 15:16:16;;;;;;;3.83;0.68;;;;;;;7.16;42.60;98195.44;10261357;29;20054;-73
2022/02/21 15:21:17;;;;;;;2.78;0.80;;;;;;;7.14;43.18;98191.22;10259159;29;20051;-73
2022/02/21 15:26:19;;;;;;;4.35;0.90;;;;;;;7.15;42.92;98170.22;10258730;29;20051;-72
2022/02/21 15:31:21;;;;;;;1.50;0.63;;;;;;;7.15;41.52;98156.31;10259346;29;20047;-73
2022/02/21 15:36:22;;;;;;;2.30;0.73;;;;;;;7.19;42.22;98147.41;10259181;29;20036;-73
2022/02/21 15:41:25;;;;;;;2.10;0.60;;;;;;;7.20;42.08;98149.09;10259579;29;20094;-72
2022/02/21 15:46:26;;;;;;;1.15;0.50;;;;;;;7.19;41.89;98126.53;10260488;29;20047;-72
2022/02/21 15:51:28;;;;;;;1.20;0.45;;;;;;;7.10;42.02;98121.75;10260089;29;20130;-72
2022/02/21 15:56:30;;;;;;;2.15;0.55;;;;;;;7.05;42.15;98107.13;10259480;29;20051;-72
2022/02/21 16:01:32;;;;;;;1.42;0.52;;;;;;;6.92;42.98;98107.78;10258391;29;20047;-71
2022/02/21 16:06:34;;;;;;;1.48;0.40;;;;;;;6.82;43.41;98108.22;10258583;29;20082;-71
2022/02/21 16:11:35;;;;;;;1.85;0.60;;;;;;;6.71;44.05;98094.81;10259471;29;20043;-73
2022/02/21 16:16:37;;;;;;;1.60;0.60;;;;;;;6.79;43.52;98091.84;10259910;28;20065;-73
2022/02/21 16:21:45;;;;;;;2.20;0.70;;;;;;;6.79;44.66;98084.03;10262157;29;20050;-73
2022/02/21 16:26:46;;;;;;;2.72;0.73;;;;;;;6.75;45.55;98070.25;10268307;29;20043;-72
2022/02/21 16:31:48;;;;;;;0.80;0.40;;;;;;;6.79;45.32;98060.53;10258999;29;20425;-72
2022/02/21 16:36:50;;;;;;;1.65;0.60;;;;;;;6.77;45.85;98052.78;10256635;29;20055;-72
2022/02/21 16:41:51;;;;;;;1.65;0.55;;;;;;;6.68;46.75;98050.56;10256181;29;20070;-72
2022/02/21 16:46:53;;;;;;;1.65;0.40;;;;;;;6.74;47.61;98052.06;10257597;29;20142;-72
2022/02/21 16:51:54;;;;;;;1.92;0.50;;;;;;;6.64;48.41;98053.41;10255961;29;20047;-71
2022/02/21 16:56:57;;;;;;;1.33;0.45;;;;;;;6.63;48.09;98052.56;10256693;29;20039;-72
2022/02/21 17:01:59;;;;;;;2.72;0.47;;;;;;;6.61;48.79;98072.69;10257006;29;20051;-72
2022/02/21 17:07:01;;;;;;;1.65;0.50;;;;;;;6.61;49.62;98070.06;10256111;29;20047;-72
2022/02/21 17:12:03;;;;;;;1.75;0.55;;;;;;;6.56;50.13;98072.06;10256383;29;20409;-72
2022/02/21 17:17:05;;;;;;;2.22;0.60;;;;;;;6.59;50.64;98082.34;10256109;29;20043;-72
2022/02/21 17:22:06;;;;;;;1.50;0.63;;;;;;;6.56;51.27;98093.78;10256761;29;20043;-72
2022/02/21 17:27:08;;;;;;;3.72;0.52;;;;;;;6.52;51.97;98079.19;10262452;28;20413;-73
2022/02/21 17:32:10;;;;;;;2.50;0.88;;;;;;;6.45;52.91;98082.97;10267330;29;20051;-72
2022/02/21 17:37:12;;;;;;;1.08;0.40;;;;;;;6.31;54.11;98090.59;10246823;29;20086;-72
2022/02/21 17:42:13;;;;;;;2.33;0.80;;;;;;;6.14;56.60;98093.97;10263927;29;20051;-72
2022/02/21 17:47:15;;;;;;;1.48;0.45;;;;;;;5.83;59.94;98089.22;10245031;29;20057;-73
2022/02/21 17:52:16;;;;;;;1.27;0.43;;;;;;;5.64;62.24;98104.81;10264301;29;20119;-71
2022/02/21 17:57:19;;;;;;;1.33;0.80;;;;;;;5.56;63.48;98101.69;10263482;29;20410;-73
2022/02/21 18:02:26;;;;;;;3.20;0.80;;;;;;;5.46;64.66;98110.81;10297961;28;20134;-73
2022/02/21 18:07:28;;;;;;;0.68;0.30;;;;;;;5.37;66.36;98121.63;10251029;28;20055;-73
2022/02/21 18:12:39;;;;;;;1.00;0.45;;;;;;;5.13;69.40;98136.47;10248759;29;20465;-74
2022/02/21 18:17:42;;;;;;;1.27;0.50;;;;;;;4.91;73.46;98146.88;10295956;28;20041;-72
2022/02/21 18:22:48;;;;;;;2.17;0.73;;;;;;;4.54;75.93;98148.31;10303054;28;20057;-72
2022/02/21 18:27:49;;;;;;;1.00;0.43;;;;;;;4.36;78.38;98141.19;10269968;28;20039;-73
2022/02/21 18:32:51;;;;;;;2.17;0.43;;;;;;;4.23;80.22;98156.38;10262316;29;20095;-74
2022/02/21 18:37:53;;;;;;;1.20;0.40;;;;;;;4.14;80.61;98162.75;10260689;28;20035;-74
2022/02/21 18:42:55;;;;;;;1.23;0.40;;;;;;;4.18;81.04;98164.34;10260878;29;20390;-73
2022/02/21 18:47:58;;;;;;;0.85;0.40;;;;;;;4.19;81.35;98160.84;10243807;29;20035;-73
2022/02/21 18:53:00;;;;;;;0.57;0.40;;;;;;;4.35;81.14;98181.97;10262072;29;20082;-73
2022/02/21 18:58:08;;;;;;;1.33;0.35;;;;;;;4.42;80.30;98169.56;10244109;29;20075;-73
2022/02/21 19:03:09;;;;;;;0.45;0.30;;;;;;;4.48;80.10;98169.34;10261379;29;20048;-72
2022/02/21 19:08:12;;;;;;;0.70;0.30;;;;;;;4.51;79.67;98203.03;10260219;29;20081;-72
2022/02/21 19:13:14;;;;;;;0.70;0.45;;;;;;;4.45;81.00;98218.88;10260099;29;20099;-73
2022/02/21 19:18:15;;;;;;;1.33;0.40;;;;;;;4.38;81.59;98215.66;10261015;29;20409;-73
2022/02/21 19:23:18;;;;;;;0.30;0.20;;;;;;;4.27;80.93;98241.22;10243524;29;20051;-73
2022/02/21 19:28:20;;;;;;;0.70;0.35;;;;;;;4.24;81.81;98256.91;10259884;29;20524;-73
2022/02/21 19:33:22;;;;;;;1.25;0.47;;;;;;;4.22;82.83;98269.97;10269172;28;20579;-72
2022/02/21 19:38:28;;;;;;;0.30;0.20;;;;;;;3.99;84.28;98288.09;10298341;28;20107;-71
2022/02/21 19:43:30;;;;;;;0.43;0.30;;;;;;;4.05;84.40;98299.13;10298643;28;20409;-71
2022/02/21 19:48:33;;;;;;;2.00;0.52;;;;;;;3.85;86.00;98334.47;10297590;28;20051;-71
2022/02/21 19:53:35;;;;;;;0.93;0.47;;;;;;;3.80;86.60;98352.81;10280426;28;20054;-72
2022/02/21 19:58:39;;;;;;;1.58;0.50;;;;;;;3.66;87.18;98355.00;10297887;28;20035;-71
2022/02/21 20:03:41;;;;;;;0.95;0.40;;;;;;;3.72;87.34;98373.88;10280671;28;20060;-72
2022/02/21 20:08:43;;;;;;;0.93;0.50;;;;;;;3.70;87.38;98380.84;10297814;28;20429;-72
2022/02/21 20:13:44;;;;;;;0.75;0.30;;;;;;;3.65;88.34;98397.47;10297822;28;20074;-72
2022/02/21 20:18:46;;;;;;;1.17;0.38;;;;;;;3.74;88.49;98418.84;10298323;28;20512;-71
2022/02/21 20:23:50;;;;;;;1.02;0.30;;;;;;;3.73;89.01;98442.28;10298090;28;20046;-71
2022/02/21 20:28:51;;;;;;;0.73;0.50;;;;;;;3.84;89.82;98486.97;10298632;28;20042;-72
2022/02/21 20:33:54;;;;;;;1.00;0.90;;;;;;;3.88;90.39;98486.00;10300112;28;20047;-71
2022/02/21 20:38:55;;;;;;;0.88;0.70;;;;;;;3.77;90.66;98517.50;10297904;28;20050;-71
2022/02/21 20:43:58;;;;;;;1.65;1.20;;;;;;;3.87;89.51;98546.69;10296435;28;20051;-72
2022/02/21 20:48:59;;;;;;;1.70;1.25;;;;;;;4.01;87.97;98573.13;10279529;28;20416;-71
2022/02/21 20:54:01;;;;;;;1.70;1.60;;;;;;;3.93;87.75;98569.91;10297066;28;20058;-72
2022/02/21 20:59:03;;;;;;;2.13;1.83;;;;;;;3.87;88.35;98593.47;10296092;28;20047;-71
2022/02/21 21:04:04;;;;;;;1.70;1.60;;;;;;;3.82;87.31;98617.91;10295648;28;20047;-72
2022/02/21 21:09:06;;;;;;;2.33;2.13;;;;;;;3.82;87.36;98649.94;10295390;28;20457;-72
2022/02/21 21:14:08;;;;;;;3.05;2.38;;;;;;;3.72;88.45;98670.13;10295761;28;20057;-71
2022/02/21 21:19:10;;;;;;;3.20;3.00;;;;;;;3.75;89.17;98682.16;10277488;28;20150;-71
2022/02/21 21:24:11;;;;;;;4.15;3.85;;;;;;;3.70;89.24;98699.63;10277840;28;20047;-71
2022/02/21 21:29:13;;;;;;;3.97;3.67;;;;;;;3.71;86.54;98716.91;10293726;28;20101;-72
2022/02/21 21:34:14;;;;;;;5.10;2.60;;;;;;;3.92;84.17;98734.56;10294747;28;20086;-72
2022/02/21 21:39:16;;;;;;;3.35;2.80;;;;;;;4.02;84.34;98753.38;10278062;28;20043;-72
2022/02/21 21:44:18;;;;;;;2.92;2.72;;;;;;;3.86;84.09;98771.13;10294297;28;20043;-72
2022/02/21 21:49:20;;;;;;;3.88;3.58;;;;;;;3.93;84.11;98777.88;10276500;28;20051;-72
2022/02/21 21:54:21;;;;;;;3.70;2.67;;;;;;;3.87;83.88;98797.97;10294400;28;20055;-71
2022/02/21 21:59:24;;;;;;;3.78;2.70;;;;;;;3.96;82.67;98810.75;10276281;28;20055;-70
2022/02/21 22:04:26;;;;;;;3.63;3.33;;;;;;;3.80;84.03;98825.84;10294181;28;20055;-71
2022/02/21 22:09:28;;;;;;;4.30;3.15;;;;;;;3.75;83.18;98835.50;10295608;28;20112;-71
2022/02/21 22:14:29;;;;;;;3.42;2.80;;;;;;;3.75;81.90;98849.34;10267421;28;20047;-71
2022/02/21 22:19:34;;;;;;;6.82;3.33;;;;;;;3.80;82.03;98857.03;10301374;28;20118;-72
2022/02/21 22:24:35;;;;;;;3.33;2.17;;;;;;;3.86;81.18;98877.72;10300746;28;20122;-71
2022/02/21 22:29:37;;;;;;;4.15;2.08;;;;;;;3.90;80.34;98883.72;10300835;28;20050;-71
2022/02/21 22:34:39;;;;;;;3.45;2.00;;;;;;;3.86;78.74;98902.88;10300507;28;20046;-71
2022/02/21 22:39:44;;;;;;;5.65;1.83;;;;;;;3.91;77.60;98907.06;10301804;28;20058;-72
2022/02/21 22:44:46;;;;;;;4.72;1.77;;;;;;;3.83;78.27;98916.78;10301971;28;20055;-72
2022/02/21 22:49:48;;;;;;;5.30;1.45;;;;;;;3.89;78.20;98932.22;10301149;28;20057;-71
2022/02/21 22:54:55;;;;;;;5.73;2.37;;;;;;;3.80;79.66;98948.88;10301303;28;20107;-71
2022/02/21 22:59:56;;;;;;;5.65;1.90;;;;;;;3.85;78.79;98946.22;10300404;28;20098;-71
2022/02/21 23:04:58;;;;;;;5.40;1.55;;;;;;;3.79;79.56;98961.91;10300960;28;20102;-71
2022/02/21 23:09:59;;;;;;;5.30;1.45;;;;;;;3.76;81.19;98962.84;10299576;28;20051;-71
2022/02/21 23:15:02;;;;;;;7.43;1.60;;;;;;;3.69;83.05;98979.47;10299555;28;20051;-72
2022/02/21 23:20:04;;;;;;;7.43;2.03;;;;;;;3.73;83.01;98975.91;10299364;28;20406;-72
2022/02/21 23:25:06;;;;;;;7.68;1.50;;;;;;;3.63;84.02;98976.09;10298590;28;20038;-71
2022/02/21 23:30:09;;;;;;;6.53;1.20;;;;;;;3.74;83.79;98967.22;10299468;28;20054;-72
2022/02/21 23:35:14;;;;;;;7.20;2.28;;;;;;;3.65;83.82;98982.16;10299510;28;20039;-72
2022/02/21 23:40:18;;;;;;;9.68;2.13;;;;;;;3.76;83.38;98988.84;10282784;28;20062;-72
2022/02/21 23:45:19;;;;;;;9.23;1.60;;;;;;;3.68;84.71;98995.09;10300402;28;20070;-71